createdAt,value
2023-01-21T00:01:01.497Z,101112.61
2023-01-21T00:03:28.718Z,101114.15
2023-01-21T00:05:58.390Z,101116.31
2023-01-21T00:08:26.330Z,101118.39
2023-01-21T00:10:53.738Z,101104.45
2023-01-21T00:13:20.945Z,101110.65
2023-01-21T00:15:48.738Z,101105.84
2023-01-21T00:18:16.060Z,101111.16
2023-01-21T00:20:43.424Z,101115.70
2023-01-21T00:23:11.173Z,101119.87
2023-01-21T00:25:38.362Z,101113.64
2023-01-21T00:28:05.695Z,101109.19
2023-01-21T00:30:33.361Z,101104.66
2023-01-21T00:33:00.604Z,101092.73
2023-01-21T00:35:27.847Z,101087.48
2023-01-21T00:37:55.128Z,101101.23
2023-01-21T00:40:22.372Z,101099.45
2023-01-21T00:42:49.635Z,101097.79
2023-01-21T00:45:17.049Z,101099.60
2023-01-21T00:47:44.304Z,101105.73
2023-01-21T00:50:11.828Z,101101.95
2023-01-21T00:52:39.100Z,101097.63
2023-01-21T00:55:06.672Z,101099.98
2023-01-21T00:57:34.162Z,101097.02
2023-01-21T01:00:01.415Z,101098.13
2023-01-21T01:02:28.621Z,101094.77
2023-01-21T01:04:56.025Z,101093.44
2023-01-21T01:07:23.965Z,101081.75
2023-01-21T01:09:51.226Z,101091.78
2023-01-21T01:12:18.484Z,101102.79
2023-01-21T01:14:45.680Z,101100.50
2023-01-21T01:17:12.869Z,101090.13
2023-01-21T01:19:40.083Z,101085.91
2023-01-21T01:22:07.302Z,101084.33
2023-01-21T01:24:34.455Z,101080.69
2023-01-21T01:27:01.957Z,101082.34
2023-01-21T01:29:29.186Z,101077.67
2023-01-21T01:31:56.439Z,101075.80
2023-01-21T01:34:23.685Z,101082.06
2023-01-21T01:36:50.887Z,101077.27
2023-01-21T01:39:18.103Z,101072.76
2023-01-21T01:41:45.370Z,101066.06
2023-01-21T01:44:50.527Z,101064.77
2023-01-21T01:47:17.727Z,101075.08
2023-01-21T01:49:44.927Z,101073.20
2023-01-21T01:52:12.158Z,101072.93
2023-01-21T01:54:50.016Z,101079.85
2023-01-21T01:57:18.534Z,101082.08
2023-01-21T01:59:46.220Z,101088.08
2023-01-21T02:02:15.144Z,101087.94
2023-01-21T02:04:48.226Z,101089.94
2023-01-21T02:07:16.093Z,101080.30
2023-01-21T02:09:43.328Z,101081.71
2023-01-21T02:12:10.568Z,101069.35
2023-01-21T02:14:43.126Z,101069.15
2023-01-21T02:17:17.652Z,101070.65
2023-01-21T02:20:03.780Z,101064.45
2023-01-21T02:22:40.185Z,101060.26
2023-01-21T02:25:27.292Z,101062.67
2023-01-21T02:28:32.260Z,101060.56
2023-01-21T02:30:59.585Z,101072.12
2023-01-21T02:33:53.155Z,101078.80
2023-01-21T02:37:06.117Z,101100.57
2023-01-21T02:40:09.002Z,101119.42
2023-01-21T02:42:51.065Z,101130.39
2023-01-21T02:45:28.380Z,101148.15
2023-01-21T02:48:16.795Z,101164.90
2023-01-21T02:50:52.875Z,101163.86
2023-01-21T02:53:27.533Z,101162.66
2023-01-21T02:55:55.028Z,101153.73
2023-01-21T02:58:29.526Z,101137.70
2023-01-21T03:01:14.583Z,101113.55
2023-01-21T03:04:03.963Z,101108.58
2023-01-21T03:06:49.164Z,101097.73
2023-01-21T03:09:27.249Z,101107.34
2023-01-21T03:12:26.310Z,101135.67
2023-01-21T03:15:30.160Z,101164.39
2023-01-21T03:18:06.643Z,101166.73
2023-01-21T03:20:45.379Z,101173.55
2023-01-21T03:23:18.199Z,101161.60
2023-01-21T03:25:45.517Z,101161.31
2023-01-21T03:28:14.099Z,101172.69
2023-01-21T03:30:42.660Z,101163.59
2023-01-21T03:33:10.341Z,101161.27
2023-01-21T03:35:40.857Z,101155.41
2023-01-21T03:38:31.781Z,101138.66
2023-01-21T03:41:20.657Z,101124.58
2023-01-21T03:43:47.809Z,101109.55
2023-01-21T03:46:20.975Z,101100.30
2023-01-21T03:49:05.086Z,101097.52
2023-01-21T03:51:39.564Z,101111.71
2023-01-21T03:54:06.713Z,101153.66
2023-01-21T03:56:33.920Z,101179.27
2023-01-21T03:59:01.129Z,101159.16
2023-01-21T04:01:28.325Z,101150.88
2023-01-21T04:03:55.508Z,101141.45
2023-01-21T04:06:23.189Z,101111.86
2023-01-21T04:08:50.434Z,101078.81
2023-01-21T04:11:17.575Z,101093.20
2023-01-21T04:13:45.022Z,101098.66
2023-01-21T04:16:12.267Z,101121.81
2023-01-21T04:18:39.563Z,101129.45
2023-01-21T04:21:06.872Z,101124.83
2023-01-21T04:23:34.189Z,101128.78
2023-01-21T04:26:01.489Z,101125.67
2023-01-21T04:28:28.782Z,101129.05
2023-01-21T04:30:56.107Z,101144.27
2023-01-21T04:33:23.826Z,101158.02
2023-01-21T04:35:51.034Z,101133.61
2023-01-21T04:38:18.397Z,101150.23
2023-01-21T04:40:45.630Z,101130.80
2023-01-21T04:43:12.790Z,101113.16
2023-01-21T04:45:40.087Z,101132.17
2023-01-21T04:48:07.910Z,101111.00
2023-01-21T04:50:35.210Z,101106.14
2023-01-21T04:53:02.374Z,101104.19
2023-01-21T04:55:29.567Z,101111.92
2023-01-21T04:57:56.763Z,101129.33
2023-01-21T05:00:24.052Z,101134.39
2023-01-21T05:02:51.267Z,101133.80
2023-01-21T05:05:18.491Z,101147.91
2023-01-21T05:07:45.748Z,101154.73
2023-01-21T05:10:17.335Z,101151.55
2023-01-21T05:12:44.852Z,101165.23
2023-01-21T05:15:12.041Z,101176.73
2023-01-21T05:17:39.416Z,101181.84
2023-01-21T05:20:07.063Z,101182.41
2023-01-21T05:22:34.222Z,101191.52
2023-01-21T05:25:01.925Z,101185.25
2023-01-21T05:27:29.230Z,101192.73
2023-01-21T05:29:57.360Z,101202.80
2023-01-21T05:32:24.752Z,101195.11
2023-01-21T05:34:51.982Z,101218.80
2023-01-21T05:37:19.264Z,101208.81
2023-01-21T05:39:46.541Z,101206.66
2023-01-21T05:42:13.732Z,101218.36
2023-01-21T05:44:40.970Z,101232.24
2023-01-21T05:47:09.046Z,101252.20
2023-01-21T05:49:36.547Z,101240.14
2023-01-21T05:52:03.956Z,101239.98
2023-01-21T05:54:31.254Z,101242.05
2023-01-21T05:56:58.466Z,101240.99
2023-01-21T05:59:25.670Z,101235.08
2023-01-21T06:01:53.062Z,101227.89
2023-01-21T06:04:21.837Z,101234.80
2023-01-21T06:06:51.007Z,101233.55
2023-01-21T06:09:18.084Z,101238.30
2023-01-21T06:11:45.239Z,101252.66
2023-01-21T06:14:12.830Z,101242.34
2023-01-21T06:16:40.275Z,101236.25
2023-01-21T06:19:07.612Z,101229.42
2023-01-21T06:21:34.839Z,101226.92
2023-01-21T06:24:02.857Z,101234.78
2023-01-21T06:26:30.119Z,101224.60
2023-01-21T06:28:57.639Z,101230.20
2023-01-21T06:31:24.954Z,101226.57
2023-01-21T06:33:52.557Z,101210.58
2023-01-21T06:36:19.755Z,101224.88
2023-01-21T06:38:46.965Z,101233.69
2023-01-21T06:41:14.200Z,101238.69
2023-01-21T06:43:41.379Z,101231.69
2023-01-21T06:46:08.641Z,101246.23
2023-01-21T06:48:35.960Z,101234.36
2023-01-21T06:51:03.201Z,101238.16
2023-01-21T06:53:30.767Z,101248.35
2023-01-21T06:55:57.913Z,101267.66
2023-01-21T06:58:25.227Z,101271.36
2023-01-21T07:00:52.381Z,101275.84
2023-01-21T07:03:19.826Z,101263.08
2023-01-21T07:05:47.109Z,101264.09
2023-01-21T07:08:14.793Z,101256.08
2023-01-21T07:10:43.346Z,101274.23
2023-01-21T07:13:10.517Z,101273.73
2023-01-21T07:15:37.737Z,101282.45
2023-01-21T07:18:05.007Z,101271.67
2023-01-21T07:20:32.214Z,101280.92
2023-01-21T07:22:59.499Z,101292.25
2023-01-21T07:25:26.771Z,101299.53
2023-01-21T07:27:53.940Z,101306.34
2023-01-21T07:30:21.591Z,101311.69
2023-01-21T07:32:48.858Z,101321.45
2023-01-21T07:35:16.500Z,101339.64
2023-01-21T07:37:44.281Z,101342.46
2023-01-21T07:40:12.011Z,101341.42
2023-01-21T07:42:39.279Z,101339.77
2023-01-21T07:45:07.401Z,101353.14
2023-01-21T07:47:34.944Z,101346.82
2023-01-21T07:50:05.284Z,101350.23
2023-01-21T07:52:32.576Z,101349.02
2023-01-21T07:55:01.904Z,101358.90
2023-01-21T07:57:29.967Z,101365.61
2023-01-21T07:59:57.937Z,101366.59
2023-01-21T08:02:25.432Z,101369.84
2023-01-21T08:04:52.801Z,101379.75
2023-01-21T08:07:19.997Z,101382.96
2023-01-21T08:09:47.183Z,101371.38
2023-01-21T08:12:14.521Z,101370.59
2023-01-21T08:14:41.728Z,101370.27
2023-01-21T08:17:08.928Z,101367.95
2023-01-21T08:19:36.429Z,101374.50
2023-01-21T08:22:03.640Z,101372.86
2023-01-21T08:24:30.958Z,101349.69
2023-01-21T08:27:01.286Z,101352.05
2023-01-21T08:29:28.526Z,101359.18
2023-01-21T08:31:55.835Z,101356.86
2023-01-21T08:34:23.484Z,101369.31
2023-01-21T08:36:50.911Z,101374.35
2023-01-21T08:39:18.177Z,101371.70
2023-01-21T08:41:46.263Z,101385.99
2023-01-21T08:44:13.496Z,101392.92
2023-01-21T08:46:40.847Z,101388.46
2023-01-21T08:49:08.229Z,101396.48
2023-01-21T08:51:35.620Z,101397.27
2023-01-21T08:54:05.492Z,101397.75
2023-01-21T08:56:32.968Z,101396.14
2023-01-21T08:59:00.399Z,101392.20
2023-01-21T09:01:27.677Z,101391.70
2023-01-21T09:03:58.918Z,101398.09
2023-01-21T09:06:27.561Z,101389.35
2023-01-21T09:08:55.198Z,101391.09
2023-01-21T09:11:22.767Z,101383.65
2023-01-21T09:13:50.294Z,101388.31
2023-01-21T09:16:19.779Z,101396.67
2023-01-21T09:18:47.741Z,101400.31
2023-01-21T09:21:15.110Z,101403.32
2023-01-21T09:23:42.387Z,101409.48
2023-01-21T09:26:17.484Z,101408.36
2023-01-21T09:28:46.165Z,101421.98
2023-01-21T09:31:15.322Z,101420.70
2023-01-21T09:33:44.489Z,101424.60
2023-01-21T09:36:14.783Z,101431.77
2023-01-21T09:38:43.422Z,101432.48
2023-01-21T09:41:19.860Z,101435.10
2023-01-21T09:43:51.822Z,101437.11
2023-01-21T09:46:36.135Z,101439.86
2023-01-21T09:49:04.410Z,101442.18
2023-01-21T09:51:42.969Z,101448.15
2023-01-21T09:54:18.419Z,101447.79
2023-01-21T09:57:00.660Z,101447.14
2023-01-21T09:59:53.591Z,101448.16
2023-01-21T10:02:52.128Z,101446.94
2023-01-21T10:05:25.372Z,101447.39
2023-01-21T10:08:20.914Z,101439.91
2023-01-21T10:11:09.869Z,101434.35
2023-01-21T10:13:46.299Z,101438.89
2023-01-21T10:16:22.467Z,101441.48
2023-01-21T10:18:51.007Z,101448.24
2023-01-21T10:21:30.409Z,101443.48
2023-01-21T10:24:21.995Z,101440.65
2023-01-21T10:26:49.769Z,101432.73
2023-01-21T10:29:18.657Z,101431.68
2023-01-21T10:31:51.929Z,101434.96
2023-01-21T10:34:19.407Z,101446.21
2023-01-21T10:36:54.819Z,101440.11
2023-01-21T10:39:34.380Z,101436.86
2023-01-21T10:42:39.760Z,101436.54
2023-01-21T10:45:18.758Z,101437.58
2023-01-21T10:48:26.884Z,101438.50
2023-01-21T10:51:07.291Z,101434.92
2023-01-21T10:53:37.650Z,101432.59
2023-01-21T10:56:29.757Z,101435.39
2023-01-21T10:59:00.952Z,101433.39
2023-01-21T11:01:30.271Z,101436.45
2023-01-21T11:03:59.035Z,101447.44
2023-01-21T11:06:26.311Z,101447.14
2023-01-21T11:08:56.908Z,101444.73
2023-01-21T11:11:32.176Z,101445.19
2023-01-21T11:13:59.442Z,101440.95
2023-01-21T11:16:38.439Z,101441.14
2023-01-21T11:19:06.553Z,101442.39
2023-01-21T11:21:35.112Z,101436.71
2023-01-21T11:24:05.128Z,101436.80
2023-01-21T11:26:33.930Z,101438.21
2023-01-21T11:29:18.380Z,101441.92
2023-01-21T11:31:50.030Z,101448.73
2023-01-21T11:34:21.617Z,101455.74
2023-01-21T11:37:04.858Z,101456.78
2023-01-21T11:39:51.731Z,101462.03
2023-01-21T11:42:18.947Z,101469.31
2023-01-21T11:45:06.049Z,101466.59
2023-01-21T11:47:37.539Z,101458.44
2023-01-21T11:50:12.793Z,101471.33
2023-01-21T11:52:40.120Z,101460.92
2023-01-21T11:55:25.465Z,101469.26
2023-01-21T11:57:54.225Z,101470.52
2023-01-21T12:00:24.107Z,101479.84
2023-01-21T12:02:53.480Z,101476.40
2023-01-21T12:05:34.923Z,101480.43
2023-01-21T12:08:03.812Z,101493.77
2023-01-21T12:10:36.462Z,101503.33
2023-01-21T12:13:22.975Z,101505.83
2023-01-21T12:15:56.361Z,101510.63
2023-01-21T12:18:49.077Z,101525.20
2023-01-21T12:21:19.410Z,101535.30
2023-01-21T12:24:06.048Z,101537.91
2023-01-21T12:26:41.510Z,101542.31
2023-01-21T12:29:40.313Z,101556.11
2023-01-21T12:32:21.043Z,101560.65
2023-01-21T12:35:14.299Z,101560.81
2023-01-21T12:37:47.238Z,101568.97
2023-01-21T12:40:20.657Z,101577.11
2023-01-21T12:42:50.254Z,101573.73
2023-01-21T12:45:22.682Z,101576.08
2023-01-21T12:48:01.724Z,101575.83
2023-01-21T12:50:51.322Z,101576.67
2023-01-21T12:53:36.950Z,101582.80
2023-01-21T12:56:39.520Z,101580.98
2023-01-21T12:59:21.948Z,101584.52
2023-01-21T13:01:52.295Z,101589.78
2023-01-21T13:04:33.051Z,101594.24
2023-01-21T13:07:05.080Z,101602.15
2023-01-21T13:09:44.367Z,101602.74
2023-01-21T13:12:22.181Z,101601.69
2023-01-21T13:15:00.556Z,101602.81
2023-01-21T13:17:29.680Z,101602.12
2023-01-21T13:19:56.902Z,101607.51
2023-01-21T13:22:58.150Z,101606.91
2023-01-21T13:25:40.319Z,101609.70
2023-01-21T13:28:34.636Z,101612.11
2023-01-21T13:31:19.474Z,101608.54
2023-01-21T13:33:56.419Z,101617.09
2023-01-21T13:36:30.158Z,101619.99
2023-01-21T13:39:00.330Z,101622.58
2023-01-21T13:41:37.188Z,101617.11
2023-01-21T13:44:19.783Z,101623.52
2023-01-21T13:46:55.320Z,101622.59
2023-01-21T13:49:41.615Z,101613.93
2023-01-21T13:52:21.567Z,101618.35
2023-01-21T13:55:06.049Z,101626.98
2023-01-21T13:57:43.491Z,101627.88
2023-01-21T14:00:17.789Z,101625.51
2023-01-21T14:02:50.855Z,101629.54
2023-01-21T14:05:24.307Z,101635.96
2023-01-21T14:07:56.415Z,101641.56
2023-01-21T14:10:40.757Z,101645.73
2023-01-21T14:13:42.398Z,101641.38
2023-01-21T14:16:18.808Z,101645.01
2023-01-21T14:19:02.264Z,101650.02
2023-01-21T14:21:37.574Z,101652.91
2023-01-21T14:24:34.214Z,101658.46
2023-01-21T14:27:17.944Z,101664.31
2023-01-21T14:29:48.016Z,101671.14
2023-01-21T14:33:00.311Z,101675.49
2023-01-21T14:35:36.577Z,101671.94
2023-01-21T14:38:48.795Z,101678.27
2023-01-21T14:41:15.897Z,101685.04
2023-01-21T14:43:44.625Z,101688.46
2023-01-21T14:46:25.360Z,101699.06
2023-01-21T14:49:06.574Z,101695.12
2023-01-21T14:51:44.939Z,101697.16
2023-01-21T14:54:17.509Z,101705.10
2023-01-21T14:57:13.645Z,101706.30
2023-01-21T14:59:46.502Z,101716.18
2023-01-21T15:02:33.904Z,101714.95
2023-01-21T15:05:03.170Z,101720.44
2023-01-21T15:07:41.637Z,101721.70
2023-01-21T15:10:11.081Z,101725.67
2023-01-21T15:12:38.655Z,101726.37
2023-01-21T15:15:29.614Z,101743.06
2023-01-21T15:18:04.199Z,101745.36
2023-01-21T15:21:00.955Z,101737.25
2023-01-21T15:23:31.275Z,101747.11
2023-01-21T15:26:07.719Z,101755.52
2023-01-21T15:28:40.611Z,101756.30
2023-01-21T15:31:21.147Z,101754.47
2023-01-21T15:33:50.649Z,101749.87
2023-01-21T15:36:26.435Z,101747.61
2023-01-21T15:38:59.621Z,101747.92
2023-01-21T15:41:56.170Z,101761.59
2023-01-21T15:44:32.845Z,101759.73
2023-01-21T15:47:38.443Z,101760.79
2023-01-21T15:50:13.485Z,101765.96
2023-01-21T15:52:43.702Z,101767.70
2023-01-21T15:55:38.677Z,101772.44
2023-01-21T15:58:40.277Z,101785.97
2023-01-21T16:01:27.042Z,101782.89
2023-01-21T16:04:08.887Z,101789.84
2023-01-21T16:06:49.168Z,101792.12
2023-01-21T16:09:38.060Z,101798.02
2023-01-21T16:12:24.088Z,101796.42
2023-01-21T16:15:05.377Z,101806.63
2023-01-21T16:17:38.775Z,101810.94
2023-01-21T16:20:06.944Z,101806.70
2023-01-21T16:22:35.089Z,101811.48
2023-01-21T16:25:12.757Z,101822.15
2023-01-21T16:27:49.023Z,101827.31
2023-01-21T16:30:20.026Z,101824.46
2023-01-21T16:32:47.387Z,101823.95
2023-01-21T16:35:15.184Z,101821.19
2023-01-21T16:37:44.506Z,101830.73
2023-01-21T16:40:11.711Z,101835.83
2023-01-21T16:42:42.720Z,101833.02
2023-01-21T16:45:20.723Z,101839.36
2023-01-21T16:47:54.090Z,101845.33
2023-01-21T16:50:28.974Z,101848.42
2023-01-21T16:52:56.823Z,101854.27
2023-01-21T16:55:28.407Z,101855.10
2023-01-21T16:57:57.387Z,101850.63
2023-01-21T17:00:31.924Z,101849.77
2023-01-21T17:02:59.790Z,101853.00
2023-01-21T17:05:28.884Z,101853.39
2023-01-21T17:07:58.328Z,101856.42
2023-01-21T17:10:37.832Z,101859.42
2023-01-21T17:13:06.627Z,101873.02
2023-01-21T17:15:37.754Z,101870.30
2023-01-21T17:18:32.001Z,101873.23
2023-01-21T17:21:00.497Z,101875.55
2023-01-21T17:23:30.183Z,101869.98
2023-01-21T17:26:01.047Z,101873.40
2023-01-21T17:28:30.777Z,101879.41
2023-01-21T17:31:14.978Z,101884.95
2023-01-21T17:33:49.612Z,101883.98
2023-01-21T17:36:18.604Z,101885.80
2023-01-21T17:38:46.712Z,101884.09
2023-01-21T17:41:24.883Z,101884.59
2023-01-21T17:43:53.177Z,101886.63
2023-01-21T17:46:22.875Z,101892.70
2023-01-21T17:48:59.183Z,101891.59
2023-01-21T17:51:28.667Z,101899.48
2023-01-21T17:54:04.085Z,101904.94
2023-01-21T17:56:39.815Z,101905.20
2023-01-21T17:59:34.631Z,101912.73
2023-01-21T18:02:02.876Z,101914.08
2023-01-21T18:04:30.365Z,101917.26
2023-01-21T18:06:57.637Z,101914.25
2023-01-21T18:09:26.320Z,101913.56
2023-01-21T18:11:55.418Z,101914.67
2023-01-21T18:14:26.187Z,101916.42
2023-01-21T18:16:56.357Z,101917.89
2023-01-21T18:19:35.393Z,101921.19
2023-01-21T18:22:04.310Z,101921.81
2023-01-21T18:24:31.868Z,101921.33
2023-01-21T18:26:59.753Z,101924.95
2023-01-21T18:29:30.784Z,101928.66
2023-01-21T18:31:58.527Z,101928.11
2023-01-21T18:34:25.897Z,101923.54
2023-01-21T18:36:53.208Z,101925.48
2023-01-21T18:39:20.825Z,101934.30
2023-01-21T18:41:48.091Z,101937.90
2023-01-21T18:44:15.426Z,101939.61
2023-01-21T18:46:43.677Z,101944.86
2023-01-21T18:49:19.296Z,101943.94
2023-01-21T18:51:46.733Z,101947.09
2023-01-21T18:54:14.799Z,101946.06
2023-01-21T18:56:42.991Z,101946.20
2023-01-21T18:59:15.147Z,101951.05
2023-01-21T19:01:42.940Z,101946.52
2023-01-21T19:04:12.074Z,101944.76
2023-01-21T19:06:40.129Z,101942.76
2023-01-21T19:09:21.717Z,101938.61
2023-01-21T19:11:49.221Z,101942.56
2023-01-21T19:14:16.973Z,101946.27
2023-01-21T19:16:44.483Z,101949.23
2023-01-21T19:19:16.139Z,101951.00
2023-01-21T19:21:43.504Z,101954.25
2023-01-21T19:24:12.276Z,101951.14
2023-01-21T19:26:39.784Z,101952.56
2023-01-21T19:29:10.913Z,101952.75
2023-01-21T19:31:38.299Z,101962.04
2023-01-21T19:34:05.664Z,101966.45
2023-01-21T19:36:33.305Z,101971.76
2023-01-21T19:39:01.812Z,101975.29
2023-01-21T19:41:29.261Z,101972.55
2023-01-21T19:43:56.527Z,101975.87
2023-01-21T19:46:24.186Z,101982.48
2023-01-21T19:48:53.884Z,101977.71
2023-01-21T19:51:21.224Z,101979.33
2023-01-21T19:53:48.426Z,101981.19
2023-01-21T19:56:22.613Z,101982.65
2023-01-21T19:58:50.044Z,101979.13
2023-01-21T20:01:17.344Z,101982.66
2023-01-21T20:03:58.588Z,101984.81
2023-01-21T20:06:28.260Z,101993.45
2023-01-21T20:08:55.674Z,101997.92
2023-01-21T20:11:23.446Z,101997.15
2023-01-21T20:13:51.051Z,101998.67
2023-01-21T20:16:19.375Z,102005.02
2023-01-21T20:18:48.015Z,102005.36
2023-01-21T20:21:15.221Z,102005.69
2023-01-21T20:23:42.834Z,102008.31
2023-01-21T20:26:18.414Z,102008.40
2023-01-21T20:28:50.428Z,102013.64
2023-01-21T20:31:18.268Z,102014.66
2023-01-21T20:33:45.734Z,102019.66
2023-01-21T20:36:20.570Z,102021.09
2023-01-21T20:38:47.783Z,102025.77
2023-01-21T20:41:14.994Z,102029.27
2023-01-21T20:43:42.412Z,102028.84
2023-01-21T20:46:17.584Z,102026.58
2023-01-21T20:48:44.976Z,102032.83
2023-01-21T20:51:12.420Z,102037.98
2023-01-21T20:53:39.766Z,102040.89
2023-01-21T20:56:18.700Z,102041.48
2023-01-21T20:58:48.098Z,102039.58
2023-01-21T21:01:16.016Z,102040.83
2023-01-21T21:03:43.337Z,102046.95
2023-01-21T21:06:21.656Z,102046.34
2023-01-21T21:08:49.381Z,102049.13
2023-01-21T21:11:16.982Z,102045.64
2023-01-21T21:13:46.619Z,102048.36
2023-01-21T21:16:30.145Z,102044.63
2023-01-21T21:18:58.551Z,102047.70
2023-01-21T21:21:25.759Z,102047.61
2023-01-21T21:23:53.266Z,102046.02
2023-01-21T21:26:23.204Z,102052.11
2023-01-21T21:28:51.211Z,102054.13
2023-01-21T21:31:18.668Z,102054.04
2023-01-21T21:33:46.029Z,102055.00
2023-01-21T21:36:17.465Z,102052.42
2023-01-21T21:38:44.756Z,102052.27
2023-01-21T21:41:35.244Z,102049.56
2023-01-21T21:44:02.841Z,102051.84
2023-01-21T21:46:48.758Z,102050.52
2023-01-21T21:49:16.263Z,102052.42
2023-01-21T21:51:45.572Z,102050.59
2023-01-21T21:54:14.151Z,102057.48
2023-01-21T21:56:41.479Z,102062.11
2023-01-21T21:59:08.741Z,102064.21
2023-01-21T22:01:36.290Z,102060.73
2023-01-21T22:04:04.154Z,102060.52
2023-01-21T22:06:31.835Z,102063.94
2023-01-21T22:08:59.255Z,102068.88
2023-01-21T22:11:26.866Z,102071.34
2023-01-21T22:13:54.935Z,102070.20
2023-01-21T22:16:24.108Z,102071.31
2023-01-21T22:18:52.315Z,102072.04
2023-01-21T22:21:22.125Z,102074.13
2023-01-21T22:23:50.182Z,102072.13
2023-01-21T22:26:22.103Z,102073.94
2023-01-21T22:28:51.438Z,102078.05
2023-01-21T22:31:27.013Z,102075.23
2023-01-21T22:33:54.601Z,102082.56
2023-01-21T22:36:23.552Z,102082.97
2023-01-21T22:38:51.040Z,102078.85
2023-01-21T22:41:20.195Z,102079.48
2023-01-21T22:43:50.757Z,102075.77
2023-01-21T22:46:26.278Z,102079.73
2023-01-21T22:48:54.083Z,102081.69
2023-01-21T22:51:23.371Z,102088.40
2023-01-21T22:53:51.072Z,102084.90
2023-01-21T22:56:20.258Z,102084.10
2023-01-21T22:58:47.526Z,102088.52
2023-01-21T23:01:25.886Z,102092.00
2023-01-21T23:03:53.326Z,102091.46
2023-01-21T23:06:20.643Z,102089.55
2023-01-21T23:08:47.882Z,102084.66
2023-01-21T23:11:15.663Z,102083.98
2023-01-21T23:13:43.063Z,102087.27
2023-01-21T23:16:11.991Z,102088.11
2023-01-21T23:18:40.830Z,102093.61
2023-01-21T23:21:10.048Z,102099.00
2023-01-21T23:23:38.206Z,102104.11
2023-01-21T23:26:06.244Z,102108.74
2023-01-21T23:28:33.839Z,102114.54
2023-01-21T23:31:05.810Z,102118.38
2023-01-21T23:33:33.618Z,102119.38
2023-01-21T23:36:01.317Z,102120.77
2023-01-21T23:38:29.291Z,102118.08
2023-01-21T23:40:57.209Z,102117.15
2023-01-21T23:43:26.552Z,102118.80
2023-01-21T23:45:54.756Z,102126.70
2023-01-21T23:48:22.447Z,102126.98
2023-01-21T23:50:49.625Z,102130.73
2023-01-21T23:53:17.428Z,102128.26
2023-01-21T23:55:44.711Z,102132.84
2023-01-21T23:58:12.269Z,102132.89
